createdAt,value
2023-05-09T00:00:09.957Z,477.2500
2023-05-09T00:01:11.816Z,476.0833
2023-05-09T00:02:14.529Z,470.6923
2023-05-09T00:03:16.793Z,465.7500
2023-05-09T00:04:19.277Z,467.1667
2023-05-09T00:05:21.245Z,468.0000
2023-05-09T00:06:23.892Z,469.8333
2023-05-09T00:07:25.814Z,473.9167
2023-05-09T00:08:28.144Z,476.5385
2023-05-09T00:09:30.539Z,475.1538
2023-05-09T00:10:32.847Z,473.9167
2023-05-09T00:11:35.199Z,471.7500
2023-05-09T00:12:37.503Z,470.9167
2023-05-09T00:13:39.870Z,470.0000
2023-05-09T00:14:42.179Z,473.5000
2023-05-09T00:15:44.619Z,474.4167
2023-05-09T00:16:46.901Z,474.5000
2023-05-09T00:17:49.225Z,468.0000
2023-05-09T00:18:51.500Z,468.3333
2023-05-09T00:19:53.983Z,467.1538
2023-05-09T00:20:56.271Z,466.8333
2023-05-09T00:21:58.606Z,470.5000
2023-05-09T00:23:00.919Z,474.4167
2023-05-09T00:24:03.184Z,476.3333
2023-05-09T00:25:05.627Z,477.3846
2023-05-09T00:26:07.878Z,482.5833
2023-05-09T00:27:10.241Z,487.9167
2023-05-09T00:28:12.533Z,488.0000
2023-05-09T00:29:14.949Z,487.9231
2023-05-09T00:30:17.596Z,485.5833
2023-05-09T00:31:19.533Z,480.9167
2023-05-09T00:32:21.896Z,477.1538
2023-05-09T00:33:24.355Z,473.0000
2023-05-09T00:34:26.752Z,472.2500
2023-05-09T00:35:28.889Z,468.0909
2023-05-09T00:36:31.566Z,469.3846
2023-05-09T00:37:33.583Z,473.8333
2023-05-09T00:38:36.000Z,475.8333
2023-05-09T00:39:38.472Z,477.4167
2023-05-09T00:40:41.639Z,479.9091
2023-05-09T00:41:42.910Z,483.5833
2023-05-09T00:42:45.264Z,484.0000
2023-05-09T00:43:47.849Z,485.3333
2023-05-09T00:44:50.260Z,481.8182
2023-05-09T00:45:52.567Z,473.8333
2023-05-09T00:46:54.735Z,470.2727
2023-05-09T00:47:57.128Z,465.9167
2023-05-09T00:48:59.272Z,465.2500
2023-05-09T00:50:02.089Z,467.5000
2023-05-09T00:51:03.950Z,467.0833
2023-05-09T00:52:06.337Z,475.1667
2023-05-09T00:53:08.887Z,479.0000
2023-05-09T00:54:10.968Z,480.8333
2023-05-09T00:55:13.756Z,480.7500
2023-05-09T00:56:15.919Z,483.0000
2023-05-09T00:57:17.948Z,482.2500
2023-05-09T00:58:20.713Z,481.8333
2023-05-09T00:59:23.285Z,477.3333
2023-05-09T01:00:25.024Z,474.6667
2023-05-09T01:01:27.345Z,472.4167
2023-05-09T01:02:29.857Z,471.0000
2023-05-09T01:03:32.116Z,471.4167
2023-05-09T01:04:34.290Z,476.3333
2023-05-09T01:05:36.672Z,478.7692
2023-05-09T01:06:39.251Z,482.3333
2023-05-09T01:07:41.415Z,484.0000
2023-05-09T01:08:43.726Z,482.1667
2023-05-09T01:09:45.977Z,482.4167
2023-05-09T01:10:48.447Z,485.5385
2023-05-09T01:11:50.712Z,487.2500
2023-05-09T01:12:53.048Z,484.5000
2023-05-09T01:13:55.603Z,480.5000
2023-05-09T01:14:57.691Z,478.2500
2023-05-09T01:16:00.411Z,477.1667
2023-05-09T01:17:02.574Z,475.8333
2023-05-09T01:18:05.257Z,473.5000
2023-05-09T01:19:07.680Z,468.6667
2023-05-09T01:20:09.373Z,468.6667
2023-05-09T01:21:11.778Z,469.3333
2023-05-09T01:22:14.231Z,468.6667
2023-05-09T01:23:17.273Z,468.5000
2023-05-09T01:24:19.839Z,472.0000
2023-05-09T01:25:21.334Z,473.8333
2023-05-09T01:26:23.686Z,475.8333
2023-05-09T01:27:26.430Z,477.8333
2023-05-09T01:28:28.096Z,477.9167
2023-05-09T01:29:30.395Z,481.5000
2023-05-09T01:30:33.527Z,484.0769
2023-05-09T01:31:36.737Z,482.6667
2023-05-09T01:32:37.866Z,484.0833
2023-05-09T01:33:39.795Z,485.8333
2023-05-09T01:34:42.086Z,487.3333
2023-05-09T01:35:44.410Z,487.8333
2023-05-09T01:36:46.746Z,492.1667
2023-05-09T01:37:49.249Z,491.3077
2023-05-09T01:38:51.553Z,490.6667
2023-05-09T01:39:54.128Z,493.0000
2023-05-09T01:40:56.220Z,495.0000
2023-05-09T01:41:58.423Z,493.5833
2023-05-09T01:43:00.819Z,493.4615
2023-05-09T01:44:03.328Z,494.6667
2023-05-09T01:45:05.440Z,495.6364
2023-05-09T01:46:07.877Z,495.1538
2023-05-09T01:47:10.138Z,492.6667
2023-05-09T01:48:12.462Z,492.7500
2023-05-09T01:49:14.802Z,492.7500
2023-05-09T01:50:17.379Z,489.7500
2023-05-09T01:51:19.622Z,482.0000
2023-05-09T01:52:21.784Z,479.9167
2023-05-09T01:53:24.216Z,479.5385
2023-05-09T01:54:26.935Z,478.4167
2023-05-09T01:55:28.804Z,477.5000
2023-05-09T01:56:31.210Z,479.6667
2023-05-09T01:57:33.508Z,480.4167
2023-05-09T01:58:36.312Z,481.5000
2023-05-09T01:59:38.233Z,481.3333
2023-05-09T02:00:40.570Z,482.4167
2023-05-09T02:01:42.886Z,482.7500
2023-05-09T02:02:45.390Z,487.0833
2023-05-09T02:03:47.573Z,488.2500
2023-05-09T02:04:49.873Z,489.0833
2023-05-09T02:05:52.250Z,489.3333
2023-05-09T02:06:54.578Z,487.1667
2023-05-09T02:07:56.962Z,486.9167
2023-05-09T02:08:59.200Z,484.6364
2023-05-09T02:10:01.653Z,484.8182
2023-05-09T02:11:03.893Z,485.3333
2023-05-09T02:12:06.234Z,482.7500
2023-05-09T02:13:08.577Z,482.6667
2023-05-09T02:14:11.045Z,483.4167
2023-05-09T02:15:13.390Z,483.9167
2023-05-09T02:16:15.932Z,481.5000
2023-05-09T02:17:18.222Z,478.4167
2023-05-09T02:18:20.292Z,477.1667
2023-05-09T02:19:22.612Z,478.2500
2023-05-09T02:20:24.910Z,483.3846
2023-05-09T02:21:29.120Z,490.8462
2023-05-09T02:22:29.696Z,492.2500
2023-05-09T02:23:31.951Z,491.1667
2023-05-09T02:24:34.350Z,489.1818
2023-05-09T02:25:36.655Z,491.4167
2023-05-09T02:26:39.543Z,498.1667
2023-05-09T02:27:41.317Z,498.0833
2023-05-09T02:28:43.657Z,497.0000
2023-05-09T02:29:45.963Z,495.8333
2023-05-09T02:30:48.397Z,496.9167
2023-05-09T02:31:50.758Z,498.1667
2023-05-09T02:32:53.081Z,492.0833
2023-05-09T02:33:55.515Z,489.8333
2023-05-09T02:34:57.620Z,489.8333
2023-05-09T02:36:00.206Z,492.7500
2023-05-09T02:37:02.451Z,494.8333
2023-05-09T02:38:04.631Z,497.7500
2023-05-09T02:39:07.321Z,500.5000
2023-05-09T02:40:09.885Z,499.4167
2023-05-09T02:41:11.705Z,494.3333
2023-05-09T02:42:14.026Z,489.9167
2023-05-09T02:43:16.746Z,486.8333
2023-05-09T02:44:18.673Z,483.5833
2023-05-09T02:45:21.027Z,478.4167
2023-05-09T02:46:23.750Z,479.0000
2023-05-09T02:47:25.694Z,483.3333
2023-05-09T02:48:28.036Z,483.1667
2023-05-09T02:49:32.426Z,489.4546
2023-05-09T02:50:32.751Z,490.5833
2023-05-09T02:51:35.219Z,490.5000
2023-05-09T02:52:37.437Z,492.5000
2023-05-09T02:53:39.794Z,489.5000
2023-05-09T02:54:42.098Z,486.5833
2023-05-09T02:55:44.408Z,493.0000
2023-05-09T02:56:46.830Z,494.4167
2023-05-09T02:57:51.994Z,490.0000
2023-05-09T02:58:51.567Z,486.7273
2023-05-09T02:59:53.854Z,483.5000
2023-05-09T03:00:56.114Z,481.3636
2023-05-09T03:01:58.434Z,482.1667
2023-05-09T03:03:00.859Z,485.5000
2023-05-09T03:04:03.079Z,489.5833
2023-05-09T03:05:05.410Z,490.0833
2023-05-09T03:06:07.771Z,489.9167
2023-05-09T03:07:10.088Z,491.5833
2023-05-09T03:08:12.412Z,494.6667
2023-05-09T03:09:14.809Z,498.8333
2023-05-09T03:10:17.301Z,499.5000
2023-05-09T03:11:19.564Z,499.8333
2023-05-09T03:12:21.852Z,498.1667
2023-05-09T03:13:24.202Z,493.2500
2023-05-09T03:14:26.539Z,495.8333
2023-05-09T03:15:28.775Z,497.3333
2023-05-09T03:16:31.187Z,495.5000
2023-05-09T03:17:33.476Z,491.2500
2023-05-09T03:18:35.759Z,487.5833
2023-05-09T03:19:38.121Z,488.3846
2023-05-09T03:20:40.464Z,488.0833
2023-05-09T03:21:42.881Z,488.2500
2023-05-09T03:22:45.125Z,486.8333
2023-05-09T03:23:47.501Z,482.3333
2023-05-09T03:24:49.801Z,482.2500
2023-05-09T03:25:52.112Z,489.2500
2023-05-09T03:26:54.461Z,491.1538
2023-05-09T03:27:56.880Z,489.9167
2023-05-09T03:28:59.135Z,489.8333
2023-05-09T03:30:01.454Z,491.0833
2023-05-09T03:31:03.949Z,491.6154
2023-05-09T03:32:06.236Z,494.2500
2023-05-09T03:33:08.526Z,492.5833
2023-05-09T03:34:10.794Z,493.2500
2023-05-09T03:35:13.476Z,493.5385
2023-05-09T03:36:15.484Z,490.5833
2023-05-09T03:37:17.817Z,491.3333
2023-05-09T03:38:20.132Z,492.0769
2023-05-09T03:39:22.471Z,492.9231
2023-05-09T03:40:24.971Z,493.5385
2023-05-09T03:41:27.145Z,500.7500
2023-05-09T03:42:29.509Z,504.2308
2023-05-09T03:43:31.919Z,504.5833
2023-05-09T03:44:34.151Z,502.5000
2023-05-09T03:45:36.609Z,502.6154
2023-05-09T03:46:38.896Z,505.9091
2023-05-09T03:47:41.217Z,503.9167
2023-05-09T03:48:43.511Z,501.8333
2023-05-09T03:49:45.847Z,503.6923
2023-05-09T03:50:48.203Z,503.6667
2023-05-09T03:51:50.548Z,503.0000
2023-05-09T03:52:52.843Z,504.0833
2023-05-09T03:53:55.434Z,503.8462
2023-05-09T03:54:57.752Z,500.9167
2023-05-09T03:55:59.871Z,499.7500
2023-05-09T03:57:02.249Z,500.8333
2023-05-09T03:58:04.597Z,502.6667
2023-05-09T03:59:06.950Z,501.1667
2023-05-09T04:00:09.426Z,500.7500
2023-05-09T04:01:11.681Z,500.0000
2023-05-09T04:02:14.840Z,497.5833
2023-05-09T04:03:16.252Z,495.5000
2023-05-09T04:04:19.587Z,494.0000
2023-05-09T04:05:20.879Z,494.0833
2023-05-09T04:06:23.200Z,493.6923
2023-05-09T04:07:25.555Z,493.6923
2023-05-09T04:08:27.881Z,493.1818
2023-05-09T04:09:30.338Z,494.5385
2023-05-09T04:10:32.536Z,495.6667
2023-05-09T04:11:35.250Z,493.6154
2023-05-09T04:12:37.227Z,494.2500
2023-05-09T04:13:39.728Z,493.2500
2023-05-09T04:14:41.980Z,494.3333
2023-05-09T04:15:44.229Z,493.9167
2023-05-09T04:16:46.584Z,494.5833
2023-05-09T04:17:51.305Z,498.3636
2023-05-09T04:18:51.226Z,502.2500
2023-05-09T04:19:53.570Z,506.4167
2023-05-09T04:20:55.894Z,505.6923
2023-05-09T04:21:58.230Z,507.8462
2023-05-09T04:23:00.628Z,505.2308
2023-05-09T04:24:02.908Z,502.6154
2023-05-09T04:25:05.299Z,502.8462
2023-05-09T04:26:07.617Z,497.5000
2023-05-09T04:27:09.947Z,495.4167
2023-05-09T04:28:12.259Z,498.7500
2023-05-09T04:29:14.643Z,504.0000
2023-05-09T04:30:17.046Z,503.0000
2023-05-09T04:31:19.402Z,503.6667
2023-05-09T04:32:21.603Z,499.5833
2023-05-09T04:33:23.960Z,499.7500
2023-05-09T04:34:26.292Z,500.2308
2023-05-09T04:35:28.660Z,499.6154
2023-05-09T04:36:30.966Z,496.0833
2023-05-09T04:37:33.306Z,493.6667
2023-05-09T04:38:35.657Z,492.7500
2023-05-09T04:39:37.973Z,494.5000
2023-05-09T04:40:40.324Z,492.5833
2023-05-09T04:41:42.649Z,494.0833
2023-05-09T04:42:45.024Z,492.4167
2023-05-09T04:43:47.297Z,491.3333
2023-05-09T04:44:49.658Z,495.8333
2023-05-09T04:45:52.066Z,496.5000
2023-05-09T04:46:54.280Z,497.4167
2023-05-09T04:47:56.691Z,497.0000
2023-05-09T04:48:59.682Z,496.5833
2023-05-09T04:50:01.314Z,495.5000
2023-05-09T04:51:03.641Z,495.2500
2023-05-09T04:52:06.003Z,492.7500
2023-05-09T04:53:08.316Z,487.0833
2023-05-09T04:54:10.651Z,487.2500
2023-05-09T04:55:13.260Z,489.2308
2023-05-09T04:56:15.329Z,490.2500
2023-05-09T04:57:18.844Z,490.0833
2023-05-09T04:58:19.999Z,492.5833
2023-05-09T04:59:22.327Z,495.9231
2023-05-09T05:00:24.712Z,498.6923
2023-05-09T05:01:27.120Z,499.0000
2023-05-09T05:02:29.358Z,496.1667
2023-05-09T05:03:31.671Z,493.6154
2023-05-09T05:04:34.061Z,495.7692
2023-05-09T05:05:37.412Z,495.5833
2023-05-09T05:06:38.685Z,495.4167
2023-05-09T05:07:41.033Z,495.9231
2023-05-09T05:08:43.359Z,496.7500
2023-05-09T05:09:45.779Z,498.0000
2023-05-09T05:10:48.246Z,497.6667
2023-05-09T05:11:59.448Z,496.4167
2023-05-09T05:12:52.740Z,492.2727
2023-05-09T05:13:55.043Z,491.0000
2023-05-09T05:14:57.388Z,487.5000
2023-05-09T05:15:59.783Z,484.8462
2023-05-09T05:17:02.136Z,487.0000
2023-05-09T05:18:04.410Z,488.8333
2023-05-09T05:19:06.733Z,489.7500
2023-05-09T05:20:09.065Z,490.9167
2023-05-09T05:21:11.413Z,490.5833
2023-05-09T05:22:13.732Z,491.2500
2023-05-09T05:23:16.061Z,491.4615
2023-05-09T05:24:18.396Z,488.7500
2023-05-09T05:25:20.743Z,488.1667
2023-05-09T05:26:23.084Z,489.5833
2023-05-09T05:27:25.396Z,488.0833
2023-05-09T05:28:27.738Z,484.8462
2023-05-09T05:29:30.067Z,482.0909
2023-05-09T05:30:34.141Z,482.1667
2023-05-09T05:31:34.803Z,484.5000
2023-05-09T05:32:37.173Z,486.2500
2023-05-09T05:33:39.419Z,487.3333
2023-05-09T05:34:41.734Z,486.7500
2023-05-09T05:35:44.086Z,484.6923
2023-05-09T05:36:46.432Z,482.4167
2023-05-09T05:37:49.217Z,482.3333
2023-05-09T05:38:51.092Z,485.7500
2023-05-09T05:39:53.429Z,487.7692
2023-05-09T05:40:55.778Z,487.6364
2023-05-09T05:41:58.487Z,488.3333
2023-05-09T05:43:00.459Z,489.7500
2023-05-09T05:44:02.773Z,490.9167
2023-05-09T05:45:05.144Z,491.1667
2023-05-09T05:46:07.523Z,491.0000
2023-05-09T05:47:09.788Z,492.8333
2023-05-09T05:48:12.234Z,490.0000
2023-05-09T05:49:14.465Z,486.1667
2023-05-09T05:50:16.794Z,488.0000
2023-05-09T05:51:19.122Z,488.2500
2023-05-09T05:52:21.460Z,483.0909
2023-05-09T05:53:23.784Z,481.0000
2023-05-09T05:54:26.122Z,478.3333
2023-05-09T05:55:28.480Z,479.6923
2023-05-09T05:56:30.788Z,479.4167
2023-05-09T05:57:33.119Z,478.1667
2023-05-09T05:58:35.449Z,480.0000
2023-05-09T05:59:37.770Z,475.0000
2023-05-09T06:00:40.136Z,473.8333
2023-05-09T06:01:42.482Z,472.3333
2023-05-09T06:02:44.878Z,472.4167
2023-05-09T06:03:47.355Z,473.0000
2023-05-09T06:04:49.449Z,471.0833
2023-05-09T06:05:51.821Z,471.0000
2023-05-09T06:06:54.114Z,470.3333
2023-05-09T06:07:56.519Z,468.8333
2023-05-09T06:08:58.785Z,469.5833
2023-05-09T06:10:01.110Z,469.8333
2023-05-09T06:11:03.506Z,467.5000
2023-05-09T06:12:05.964Z,464.9167
2023-05-09T06:13:08.141Z,467.0833
2023-05-09T06:14:10.462Z,467.4615
2023-05-09T06:15:13.107Z,468.5833
2023-05-09T06:16:19.679Z,467.6667
2023-05-09T06:17:18.440Z,468.1818
2023-05-09T06:18:19.792Z,467.5000
2023-05-09T06:19:22.175Z,466.5000
2023-05-09T06:20:24.458Z,462.9167
2023-05-09T06:21:26.869Z,462.7692
2023-05-09T06:22:29.147Z,461.9167
2023-05-09T06:23:31.475Z,459.6667
2023-05-09T06:24:36.343Z,458.2727
2023-05-09T06:25:36.192Z,459.4546
2023-05-09T06:26:38.497Z,458.6364
2023-05-09T06:27:40.821Z,457.3333
2023-05-09T06:28:43.166Z,455.9091
2023-05-09T06:29:45.500Z,453.8333
2023-05-09T06:30:47.837Z,454.0000
2023-05-09T06:31:50.553Z,452.8333
2023-05-09T06:32:52.595Z,453.9167
2023-05-09T06:33:54.831Z,452.4167
2023-05-09T06:34:57.250Z,448.0833
2023-05-09T06:35:59.511Z,445.6667
2023-05-09T06:37:01.868Z,444.0833
2023-05-09T06:38:04.179Z,442.3333
2023-05-09T06:39:06.536Z,441.0000
2023-05-09T06:40:08.888Z,442.1667
2023-05-09T06:41:11.194Z,443.1667
2023-05-09T06:42:13.537Z,446.0833
2023-05-09T06:43:15.859Z,446.6667
2023-05-09T06:44:18.190Z,446.5000
2023-05-09T06:45:20.763Z,445.8333
2023-05-09T06:46:22.975Z,446.1667
2023-05-09T06:47:25.249Z,445.5000
2023-05-09T06:48:27.527Z,442.1667
2023-05-09T06:49:29.875Z,443.5000
2023-05-09T06:50:33.016Z,444.3333
2023-05-09T06:51:34.546Z,446.3333
2023-05-09T06:52:36.878Z,447.0000
2023-05-09T06:53:39.209Z,449.1667
2023-05-09T06:54:41.586Z,451.1818
2023-05-09T06:55:43.936Z,452.5454
2023-05-09T06:56:46.270Z,451.6923
2023-05-09T06:57:48.611Z,454.8462
2023-05-09T06:58:50.944Z,457.4167
2023-05-09T06:59:53.272Z,457.3846
2023-05-09T07:00:55.619Z,457.4615
2023-05-09T07:01:58.129Z,455.5000
2023-05-09T07:03:00.345Z,454.0833
2023-05-09T07:04:02.619Z,455.4167
2023-05-09T07:05:04.989Z,454.8333
2023-05-09T07:06:07.385Z,456.5833
2023-05-09T07:07:09.640Z,458.5833
2023-05-09T07:08:11.976Z,459.4167
2023-05-09T07:09:14.304Z,458.2500
2023-05-09T07:10:16.638Z,459.2500
2023-05-09T07:11:18.984Z,460.8333
2023-05-09T07:12:21.305Z,459.7500
2023-05-09T07:13:23.743Z,457.4615
2023-05-09T07:14:25.970Z,458.1667
2023-05-09T07:15:40.602Z,457.6923
2023-05-09T07:16:30.692Z,458.4546
2023-05-09T07:17:33.009Z,457.6154
2023-05-09T07:18:35.321Z,454.7500
2023-05-09T07:19:37.662Z,450.6364
2023-05-09T07:20:39.982Z,447.7500
2023-05-09T07:21:42.415Z,446.0833
2023-05-09T07:22:44.735Z,445.1667
2023-05-09T07:23:47.005Z,444.7500
2023-05-09T07:24:49.318Z,444.0000
2023-05-09T07:25:51.657Z,442.3846
2023-05-09T07:26:53.996Z,442.1667
2023-05-09T07:27:56.339Z,443.0000
2023-05-09T07:28:58.671Z,442.5385
2023-05-09T07:30:01.000Z,444.0833
2023-05-09T07:31:03.337Z,445.8462
2023-05-09T07:32:05.708Z,445.6923
2023-05-09T07:33:08.240Z,445.9231
2023-05-09T07:34:10.368Z,446.6667
2023-05-09T07:35:12.985Z,445.6667
2023-05-09T07:36:15.013Z,443.0833
2023-05-09T07:37:17.492Z,441.2727
2023-05-09T07:38:19.698Z,439.5833
2023-05-09T07:39:22.064Z,440.8333
2023-05-09T07:40:24.368Z,443.4167
2023-05-09T07:41:26.843Z,444.3846
2023-05-09T07:42:29.044Z,440.9167
2023-05-09T07:43:31.372Z,436.2500
2023-05-09T07:44:33.725Z,435.5385
2023-05-09T07:45:36.043Z,434.4167
2023-05-09T07:46:38.402Z,435.6364
2023-05-09T07:47:40.759Z,432.5385
2023-05-09T07:48:43.070Z,431.1538
2023-05-09T07:49:45.417Z,429.8182
2023-05-09T07:50:47.740Z,429.5000
2023-05-09T07:51:50.092Z,428.8462
2023-05-09T07:52:52.530Z,424.6364
2023-05-09T07:53:54.755Z,427.4167
2023-05-09T07:54:57.114Z,427.6154
2023-05-09T07:55:59.437Z,428.7500
2023-05-09T07:57:01.776Z,430.2308
2023-05-09T07:58:04.100Z,426.5454
2023-05-09T07:59:06.458Z,427.3846
2023-05-09T08:00:08.813Z,430.0000
2023-05-09T08:01:11.148Z,428.1818
2023-05-09T08:02:13.503Z,423.0769
2023-05-09T08:03:16.032Z,423.9091
2023-05-09T08:04:18.181Z,426.1667
2023-05-09T08:05:20.975Z,426.0000
2023-05-09T08:06:22.849Z,425.5833
2023-05-09T08:07:25.169Z,428.5833
2023-05-09T08:08:27.529Z,430.0769
2023-05-09T08:09:29.864Z,429.0769
2023-05-09T08:10:32.329Z,429.3636
2023-05-09T08:11:34.553Z,431.9167
2023-05-09T08:12:36.895Z,431.2500
2023-05-09T08:13:39.346Z,431.6923
2023-05-09T08:14:41.556Z,428.8182
2023-05-09T08:15:43.922Z,425.8462
2023-05-09T08:16:46.248Z,421.9167
2023-05-09T08:17:48.705Z,421.7692
2023-05-09T08:18:50.925Z,418.9091
2023-05-09T08:19:53.285Z,418.0000
2023-05-09T08:20:55.596Z,417.9167
2023-05-09T08:21:57.962Z,418.6923
2023-05-09T08:23:00.303Z,421.9167
2023-05-09T08:24:02.739Z,422.5454
2023-05-09T08:25:04.970Z,420.8333
2023-05-09T08:26:07.307Z,416.4167
2023-05-09T08:27:09.661Z,417.7692
2023-05-09T08:28:12.014Z,418.2308
2023-05-09T08:29:14.337Z,420.3333
2023-05-09T08:30:16.748Z,417.2727
2023-05-09T08:31:19.060Z,413.4167
2023-05-09T08:32:21.387Z,411.4167
2023-05-09T08:33:23.749Z,413.6923
2023-05-09T08:34:26.058Z,413.2500
2023-05-09T08:35:28.401Z,411.4615
2023-05-09T08:36:30.758Z,415.0000
2023-05-09T08:37:33.088Z,417.9231
2023-05-09T08:38:35.487Z,417.6154
2023-05-09T08:39:37.869Z,414.4167
2023-05-09T08:40:40.127Z,414.3333
2023-05-09T08:41:42.525Z,416.4546
2023-05-09T08:42:44.863Z,417.6154
2023-05-09T08:43:47.210Z,416.9167
2023-05-09T08:44:49.507Z,413.9167
2023-05-09T08:45:51.872Z,416.7692
2023-05-09T08:46:54.303Z,416.0000
2023-05-09T08:47:56.558Z,413.7500
2023-05-09T08:48:58.930Z,414.1538
2023-05-09T08:50:01.230Z,425.2727
2023-05-09T08:51:03.581Z,432.9231
2023-05-09T08:52:05.986Z,434.1538
2023-05-09T08:53:08.280Z,437.5833
2023-05-09T08:54:10.655Z,438.0000
2023-05-09T08:55:13.096Z,438.4167
2023-05-09T08:56:15.298Z,437.9167
2023-05-09T08:57:17.664Z,437.0769
2023-05-09T08:58:20.005Z,437.0000
2023-05-09T08:59:22.396Z,441.3846
2023-05-09T09:00:24.760Z,440.8333
2023-05-09T09:01:27.102Z,443.0833
2023-05-09T09:02:29.429Z,443.6667
2023-05-09T09:03:31.717Z,441.1667
2023-05-09T09:04:34.134Z,441.4615
2023-05-09T09:05:41.964Z,441.7273
2023-05-09T09:06:38.795Z,440.0000
2023-05-09T09:07:41.103Z,440.0833
2023-05-09T09:08:43.464Z,443.1538
2023-05-09T09:09:45.813Z,443.6154
2023-05-09T09:10:48.254Z,442.4167
2023-05-09T09:11:50.479Z,443.5000
2023-05-09T09:12:52.848Z,442.4615
2023-05-09T09:13:55.191Z,444.4167
2023-05-09T09:14:57.531Z,444.6667
2023-05-09T09:16:00.141Z,443.7500
2023-05-09T09:17:02.209Z,440.4167
2023-05-09T09:18:07.535Z,441.2500
2023-05-09T09:19:06.899Z,442.6667
2023-05-09T09:20:09.268Z,444.4167
2023-05-09T09:21:11.729Z,442.5454
2023-05-09T09:22:13.965Z,443.9167
2023-05-09T09:23:16.278Z,443.2500
2023-05-09T09:24:18.641Z,442.9231
2023-05-09T09:25:20.995Z,442.5000
2023-05-09T09:26:23.425Z,442.9167
2023-05-09T09:27:25.676Z,439.8333
2023-05-09T09:28:28.030Z,438.5385
2023-05-09T09:29:30.383Z,439.0769
2023-05-09T09:30:32.714Z,440.1667
2023-05-09T09:31:35.100Z,439.9231
2023-05-09T09:32:37.487Z,443.0000
2023-05-09T09:33:39.759Z,443.3333
2023-05-09T09:34:42.155Z,442.5385
2023-05-09T09:35:44.453Z,445.0000
2023-05-09T09:36:46.815Z,444.7692
2023-05-09T09:37:49.154Z,445.0000
2023-05-09T09:38:51.493Z,440.0000
2023-05-09T09:39:53.866Z,438.6923
2023-05-09T09:40:56.242Z,440.0000
2023-05-09T09:41:58.625Z,441.7500
2023-05-09T09:43:00.882Z,442.3333
2023-05-09T09:44:03.233Z,442.6923
2023-05-09T09:45:05.589Z,442.3846
2023-05-09T09:46:07.934Z,441.0000
2023-05-09T09:47:10.272Z,440.0833
2023-05-09T09:48:12.685Z,440.6667
2023-05-09T09:49:15.007Z,440.7500
2023-05-09T09:50:17.463Z,441.0000
2023-05-09T09:51:19.667Z,443.2500
2023-05-09T09:52:22.022Z,445.9231
2023-05-09T09:53:24.367Z,449.7273
2023-05-09T09:54:26.740Z,448.6154
2023-05-09T09:55:29.088Z,444.0000
2023-05-09T09:56:31.428Z,443.3077
2023-05-09T09:57:33.863Z,442.1538
2023-05-09T09:58:36.121Z,442.9167
2023-05-09T09:59:38.521Z,443.0000
2023-05-09T10:00:40.866Z,441.5000
2023-05-09T10:01:43.244Z,441.2500
2023-05-09T10:02:45.557Z,440.7500
2023-05-09T10:03:47.956Z,437.1667
2023-05-09T10:04:50.247Z,438.3333
2023-05-09T10:05:52.582Z,438.5833
2023-05-09T10:06:54.958Z,439.8182
2023-05-09T10:07:57.275Z,438.0000
2023-05-09T10:08:59.645Z,435.5833
2023-05-09T10:10:02.039Z,437.6667
2023-05-09T10:11:04.340Z,438.3333
2023-05-09T10:12:06.703Z,438.5833
2023-05-09T10:13:09.158Z,439.6667
2023-05-09T10:14:11.383Z,436.4167
2023-05-09T10:15:13.756Z,437.1667
2023-05-09T10:16:16.193Z,436.5000
2023-05-09T10:17:18.507Z,437.5833
2023-05-09T10:18:20.970Z,437.2500
2023-05-09T10:19:23.134Z,436.5833
2023-05-09T10:20:25.529Z,436.0000
2023-05-09T10:21:27.827Z,437.5000
2023-05-09T10:22:30.173Z,436.7500
2023-05-09T10:23:32.546Z,433.6667
2023-05-09T10:24:34.908Z,436.6667
2023-05-09T10:25:37.263Z,437.8182
2023-05-09T10:26:39.577Z,437.0000
2023-05-09T10:27:41.942Z,434.6923
2023-05-09T10:28:44.378Z,435.0000
2023-05-09T10:29:46.665Z,437.5833
2023-05-09T10:30:49.030Z,440.9167
2023-05-09T10:31:51.466Z,444.7500
2023-05-09T10:32:53.722Z,442.5833
2023-05-09T10:33:56.079Z,439.7500
2023-05-09T10:34:58.393Z,439.4615
2023-05-09T10:36:00.755Z,439.2500
2023-05-09T10:37:03.118Z,438.5833
2023-05-09T10:38:05.462Z,439.6667
2023-05-09T10:39:07.798Z,439.5833
2023-05-09T10:40:10.149Z,439.0833
2023-05-09T10:41:12.496Z,437.4167
2023-05-09T10:42:14.864Z,437.8462
2023-05-09T10:43:17.216Z,439.9167
2023-05-09T10:44:19.659Z,440.8182
2023-05-09T10:45:21.893Z,441.5000
2023-05-09T10:46:24.363Z,442.1667
2023-05-09T10:47:51.445Z,441.5833
2023-05-09T10:48:28.999Z,431.1429
2023-05-09T10:49:31.351Z,434.2500
2023-05-09T10:50:33.702Z,437.0833
2023-05-09T10:51:36.036Z,436.3333
2023-05-09T10:52:38.366Z,439.5833
2023-05-09T10:53:40.749Z,440.9167
2023-05-09T10:54:43.488Z,440.6667
2023-05-09T10:55:45.428Z,440.3333
2023-05-09T10:56:47.772Z,442.5000
2023-05-09T10:57:50.130Z,441.4167
2023-05-09T10:58:52.480Z,442.3333
2023-05-09T10:59:55.009Z,442.3333
2023-05-09T11:00:57.445Z,440.8333
2023-05-09T11:01:59.712Z,439.5000
2023-05-09T11:03:02.095Z,436.3333
2023-05-09T11:04:04.341Z,437.1667
2023-05-09T11:05:06.690Z,438.8333
2023-05-09T11:06:08.999Z,439.8333
2023-05-09T11:07:11.376Z,436.4615
2023-05-09T11:08:13.717Z,436.8333
2023-05-09T11:09:16.074Z,439.4167
2023-05-09T11:10:18.523Z,440.2500
2023-05-09T11:11:20.769Z,438.9167
2023-05-09T11:12:23.123Z,439.3333
2023-05-09T11:13:25.536Z,437.0000
2023-05-09T11:14:27.799Z,435.5000
2023-05-09T11:15:30.337Z,434.7692
2023-05-09T11:16:32.519Z,434.5000
2023-05-09T11:17:34.924Z,433.4167
2023-05-09T11:18:37.274Z,433.4167
2023-05-09T11:19:39.568Z,437.4167
2023-05-09T11:20:41.978Z,439.3636
2023-05-09T11:21:44.276Z,438.5833
2023-05-09T11:22:46.632Z,439.0833
2023-05-09T11:23:48.931Z,437.5000
2023-05-09T11:24:51.281Z,437.6154
2023-05-09T11:25:53.667Z,439.0000
2023-05-09T11:26:56.143Z,440.1667
2023-05-09T11:27:58.346Z,440.6667
2023-05-09T11:29:00.702Z,442.2500
2023-05-09T11:30:03.052Z,441.0000
2023-05-09T11:31:05.489Z,441.7273
2023-05-09T11:32:07.944Z,443.1818
2023-05-09T11:33:10.090Z,444.8333
2023-05-09T11:34:12.410Z,444.8333
2023-05-09T11:35:15.366Z,444.7692
2023-05-09T11:36:17.165Z,444.8333
2023-05-09T11:37:19.554Z,443.6667
2023-05-09T11:38:21.843Z,441.7500
2023-05-09T11:39:24.190Z,439.8333
2023-05-09T11:40:26.505Z,440.7500
2023-05-09T11:41:29.006Z,442.6667
2023-05-09T11:42:31.230Z,438.6667
2023-05-09T11:43:33.609Z,440.0833
2023-05-09T11:44:35.934Z,441.6667
2023-05-09T11:45:38.325Z,443.3333
2023-05-09T11:46:40.658Z,445.0833
2023-05-09T11:47:43.048Z,444.0000
2023-05-09T11:48:45.483Z,443.2500
2023-05-09T11:49:49.964Z,443.0000
2023-05-09T11:50:50.080Z,446.4167
2023-05-09T11:51:52.320Z,443.6667
2023-05-09T11:52:54.700Z,441.5454
2023-05-09T11:53:57.030Z,441.2500
2023-05-09T11:54:59.523Z,441.8333
2023-05-09T11:56:02.160Z,440.7500
2023-05-09T11:57:04.126Z,440.2500
2023-05-09T11:58:06.563Z,440.1667
2023-05-09T11:59:08.766Z,438.4167
2023-05-09T12:00:11.229Z,439.0833
2023-05-09T12:01:13.587Z,440.8333
2023-05-09T12:02:15.871Z,441.5833
2023-05-09T12:03:18.489Z,442.5000
2023-05-09T12:04:20.472Z,441.4167
2023-05-09T12:05:23.093Z,441.6667
2023-05-09T12:06:26.254Z,441.9091
2023-05-09T12:07:27.530Z,443.7273
2023-05-09T12:08:29.938Z,444.5454
2023-05-09T12:09:32.199Z,440.9167
2023-05-09T12:10:34.542Z,436.5833
2023-05-09T12:11:37.189Z,435.9231